Ceredo, West Virginia
Current Conditions -  °F | °C
As of 10:51 PM on Sunday 23 Nov 2014 (Local Time) from KHTS Reporting Station
Broken Clouds Broken Clouds  
Wind Chill: 59°   Ceiling: 8000
Heat Index: 59°   Visibility: 10mi
Dew Point: 54°   Wind: 7mph
Humidity: 83%   Direction: 160°SSE
Pressure: 29.44"   Gusts: 18mph
Location:  38.4°N, 82.56°W
Report Text: KHTS 240351Z 16006G16KT 10SM SCT060 BKN080 15/12 A2944 RMK AO2 SLP963 T01500122
Loading
Personal Weather Stations






























Interactive Weather Map New forecast layout! Learn more

10-Day Weather Forecast

Advertisements
Track Severe Weather on mobile